sensor_id;sensor_type;location;lat;lon;timestamp;temperature;humidity
53844;DHT22;39744;53.314;5.710;2023-02-15T00:00:19;0.80;99.90
53844;DHT22;39744;53.314;5.710;2023-02-15T00:02:45;0.80;99.90
53844;DHT22;39744;53.314;5.710;2023-02-15T00:05:10;0.90;99.90
53844;DHT22;39744;53.314;5.710;2023-02-15T00:07:36;0.80;99.90
53844;DHT22;39744;53.314;5.710;2023-02-15T00:10:02;0.80;99.90
53844;DHT22;39744;53.314;5.710;2023-02-15T00:12:28;0.70;99.90
53844;DHT22;39744;53.314;5.710;2023-02-15T00:14:53;0.80;99.90
53844;DHT22;39744;53.314;5.710;2023-02-15T00:17:20;0.70;99.90
53844;DHT22;39744;53.314;5.710;2023-02-15T00:19:46;0.70;99.90
53844;DHT22;39744;53.314;5.710;2023-02-15T00:22:11;0.80;99.90
53844;DHT22;39744;53.314;5.710;2023-02-15T00:24:37;0.90;99.90
53844;DHT22;39744;53.314;5.710;2023-02-15T00:27:03;0.60;99.90
53844;DHT22;39744;53.314;5.710;2023-02-15T00:29:28;0.90;99.90
53844;DHT22;39744;53.314;5.710;2023-02-15T00:31:54;0.70;99.90
53844;DHT22;39744;53.314;5.710;2023-02-15T00:34:24;0.80;99.90
53844;DHT22;39744;53.314;5.710;2023-02-15T00:36:50;0.90;99.90
53844;DHT22;39744;53.314;5.710;2023-02-15T00:39:17;0.80;99.90
53844;DHT22;39744;53.314;5.710;2023-02-15T00:41:43;1.00;99.90
53844;DHT22;39744;53.314;5.710;2023-02-15T00:44:09;0.90;99.90
53844;DHT22;39744;53.314;5.710;2023-02-15T00:46:35;0.90;99.90
53844;DHT22;39744;53.314;5.710;2023-02-15T00:49:01;1.00;99.90
53844;DHT22;39744;53.314;5.710;2023-02-15T00:51:27;1.00;99.90
53844;DHT22;39744;53.314;5.710;2023-02-15T00:53:52;1.00;99.90
53844;DHT22;39744;53.314;5.710;2023-02-15T00:56:19;1.10;99.90
53844;DHT22;39744;53.314;5.710;2023-02-15T00:58:44;1.10;99.90
53844;DHT22;39744;53.314;5.710;2023-02-15T01:01:17;1.20;99.90
53844;DHT22;39744;53.314;5.710;2023-02-15T01:03:44;1.00;99.90
53844;DHT22;39744;53.314;5.710;2023-02-15T01:06:12;1.20;99.90
53844;DHT22;39744;53.314;5.710;2023-02-15T01:08:38;1.10;99.90
53844;DHT22;39744;53.314;5.710;2023-02-15T01:11:16;1.10;99.90
53844;DHT22;39744;53.314;5.710;2023-02-15T01:13:48;1.20;99.90
53844;DHT22;39744;53.314;5.710;2023-02-15T01:16:14;1.00;99.90
53844;DHT22;39744;53.314;5.710;2023-02-15T01:18:40;1.00;99.90
53844;DHT22;39744;53.314;5.710;2023-02-15T01:21:22;1.00;99.90
53844;DHT22;39744;53.314;5.710;2023-02-15T01:23:48;1.10;99.90
53844;DHT22;39744;53.314;5.710;2023-02-15T01:26:15;1.10;99.90
53844;DHT22;39744;53.314;5.710;2023-02-15T01:28:41;1.00;99.90
53844;DHT22;39744;53.314;5.710;2023-02-15T01:31:15;1.00;99.90
53844;DHT22;39744;53.314;5.710;2023-02-15T01:33:42;1.10;99.90
53844;DHT22;39744;53.314;5.710;2023-02-15T01:36:08;1.00;99.90
53844;DHT22;39744;53.314;5.710;2023-02-15T01:38:34;1.10;99.90
53844;DHT22;39744;53.314;5.710;2023-02-15T01:41:00;1.10;99.90
53844;DHT22;39744;53.314;5.710;2023-02-15T01:43:58;1.10;99.90
53844;DHT22;39744;53.314;5.710;2023-02-15T01:46:38;1.10;99.90
53844;DHT22;39744;53.314;5.710;2023-02-15T01:49:15;1.30;99.90
53844;DHT22;39744;53.314;5.710;2023-02-15T01:51:43;1.20;99.90
53844;DHT22;39744;53.314;5.710;2023-02-15T01:54:30;1.20;99.90
53844;DHT22;39744;53.314;5.710;2023-02-15T01:57:01;1.20;99.90
53844;DHT22;39744;53.314;5.710;2023-02-15T01:59:29;1.20;99.90
53844;DHT22;39744;53.314;5.710;2023-02-15T02:01:58;1.20;99.90
53844;DHT22;39744;53.314;5.710;2023-02-15T02:04:30;1.20;99.90
53844;DHT22;39744;53.314;5.710;2023-02-15T02:06:57;1.20;99.90
53844;DHT22;39744;53.314;5.710;2023-02-15T02:09:24;1.10;99.90
53844;DHT22;39744;53.314;5.710;2023-02-15T02:11:50;1.00;99.90
53844;DHT22;39744;53.314;5.710;2023-02-15T02:14:17;1.30;99.90
53844;DHT22;39744;53.314;5.710;2023-02-15T02:16:47;1.20;99.90
53844;DHT22;39744;53.314;5.710;2023-02-15T02:33:18;1.10;99.90
53844;DHT22;39744;53.314;5.710;2023-02-15T02:38:28;0.90;99.90
53844;DHT22;39744;53.314;5.710;2023-02-15T02:41:17;1.10;99.90
53844;DHT22;39744;53.314;5.710;2023-02-15T02:44:12;1.00;99.90
53844;DHT22;39744;53.314;5.710;2023-02-15T02:46:53;1.00;99.90
53844;DHT22;39744;53.314;5.710;2023-02-15T02:49:38;1.10;99.90
53844;DHT22;39744;53.314;5.710;2023-02-15T02:52:52;1.00;99.90
53844;DHT22;39744;53.314;5.710;2023-02-15T02:54:53;1.00;99.90
53844;DHT22;39744;53.314;5.710;2023-02-15T02:57:23;0.80;99.90
53844;DHT22;39744;53.314;5.710;2023-02-15T02:59:50;0.80;99.90
53844;DHT22;39744;53.314;5.710;2023-02-15T03:02:23;0.80;99.90
53844;DHT22;39744;53.314;5.710;2023-02-15T03:04:51;0.70;99.90
53844;DHT22;39744;53.314;5.710;2023-02-15T03:07:24;0.80;99.90
53844;DHT22;39744;53.314;5.710;2023-02-15T03:09:54;0.70;99.90
53844;DHT22;39744;53.314;5.710;2023-02-15T03:12:37;0.80;99.90
53844;DHT22;39744;53.314;5.710;2023-02-15T03:15:15;0.80;99.90
53844;DHT22;39744;53.314;5.710;2023-02-15T03:17:44;0.90;99.90
53844;DHT22;39744;53.314;5.710;2023-02-15T03:20:16;0.80;99.90
53844;DHT22;39744;53.314;5.710;2023-02-15T03:26:02;0.80;99.90
53844;DHT22;39744;53.314;5.710;2023-02-15T03:28:38;0.70;99.90
53844;DHT22;39744;53.314;5.710;2023-02-15T03:31:07;0.70;99.90
53844;DHT22;39744;53.314;5.710;2023-02-15T03:33:36;0.70;99.90
53844;DHT22;39744;53.314;5.710;2023-02-15T03:36:11;0.60;99.90
53844;DHT22;39744;53.314;5.710;2023-02-15T03:38:57;0.60;99.90
53844;DHT22;39744;53.314;5.710;2023-02-15T03:41:27;0.60;99.90
53844;DHT22;39744;53.314;5.710;2023-02-15T03:44:15;0.60;99.90
53844;DHT22;39744;53.314;5.710;2023-02-15T03:49:31;0.60;99.90
53844;DHT22;39744;53.314;5.710;2023-02-15T03:52:01;0.50;99.90
53844;DHT22;39744;53.314;5.710;2023-02-15T03:54:30;0.40;99.90
53844;DHT22;39744;53.314;5.710;2023-02-15T03:57:13;0.20;99.90
53844;DHT22;39744;53.314;5.710;2023-02-15T03:59:59;0.50;99.90
53844;DHT22;39744;53.314;5.710;2023-02-15T04:03:09;0.50;99.90
53844;DHT22;39744;53.314;5.710;2023-02-15T04:05:36;0.30;99.90
53844;DHT22;39744;53.314;5.710;2023-02-15T04:08:02;0.50;99.90
53844;DHT22;39744;53.314;5.710;2023-02-15T04:10:27;0.50;99.90
53844;DHT22;39744;53.314;5.710;2023-02-15T04:13:12;0.50;99.90
53844;DHT22;39744;53.314;5.710;2023-02-15T04:15:37;0.50;99.90
53844;DHT22;39744;53.314;5.710;2023-02-15T04:18:21;0.50;99.90
53844;DHT22;39744;53.314;5.710;2023-02-15T04:21:05;0.60;99.90
53844;DHT22;39744;53.314;5.710;2023-02-15T04:23:50;0.60;99.90
53844;DHT22;39744;53.314;5.710;2023-02-15T04:26:34;0.50;99.90
53844;DHT22;39744;53.314;5.710;2023-02-15T04:29:00;0.60;99.90
53844;DHT22;39744;53.314;5.710;2023-02-15T04:31:26;0.60;99.90
53844;DHT22;39744;53.314;5.710;2023-02-15T04:33:51;0.60;99.90
53844;DHT22;39744;53.314;5.710;2023-02-15T04:36:17;0.60;99.90
53844;DHT22;39744;53.314;5.710;2023-02-15T04:38:42;0.50;99.90
53844;DHT22;39744;53.314;5.710;2023-02-15T04:41:08;0.40;99.90
53844;DHT22;39744;53.314;5.710;2023-02-15T04:43:36;0.40;99.90
53844;DHT22;39744;53.314;5.710;2023-02-15T04:46:01;0.50;99.90
53844;DHT22;39744;53.314;5.710;2023-02-15T04:48:27;0.40;99.90
53844;DHT22;39744;53.314;5.710;2023-02-15T04:50:52;0.50;99.90
53844;DHT22;39744;53.314;5.710;2023-02-15T04:53:18;0.50;99.90
53844;DHT22;39744;53.314;5.710;2023-02-15T04:55:44;0.40;99.90
53844;DHT22;39744;53.314;5.710;2023-02-15T04:58:09;0.50;99.90
53844;DHT22;39744;53.314;5.710;2023-02-15T05:00:36;0.50;99.90
53844;DHT22;39744;53.314;5.710;2023-02-15T05:03:02;0.50;99.90
53844;DHT22;39744;53.314;5.710;2023-02-15T05:05:27;0.40;99.90
53844;DHT22;39744;53.314;5.710;2023-02-15T05:07:53;0.50;99.90
53844;DHT22;39744;53.314;5.710;2023-02-15T05:10:19;0.40;99.90
53844;DHT22;39744;53.314;5.710;2023-02-15T05:12:45;0.40;99.90
53844;DHT22;39744;53.314;5.710;2023-02-15T05:15:10;0.40;99.90
53844;DHT22;39744;53.314;5.710;2023-02-15T05:17:36;0.40;99.90
53844;DHT22;39744;53.314;5.710;2023-02-15T05:20:02;0.40;99.90
53844;DHT22;39744;53.314;5.710;2023-02-15T05:22:28;0.40;99.90
53844;DHT22;39744;53.314;5.710;2023-02-15T05:24:54;0.30;99.90
53844;DHT22;39744;53.314;5.710;2023-02-15T05:27:38;0.30;99.90
53844;DHT22;39744;53.314;5.710;2023-02-15T05:30:22;0.30;99.90
53844;DHT22;39744;53.314;5.710;2023-02-15T05:32:48;0.30;99.90
53844;DHT22;39744;53.314;5.710;2023-02-15T05:35:15;0.20;99.90
53844;DHT22;39744;53.314;5.710;2023-02-15T05:37:41;0.20;99.90
53844;DHT22;39744;53.314;5.710;2023-02-15T05:40:07;0.20;99.90
53844;DHT22;39744;53.314;5.710;2023-02-15T05:42:33;0.30;99.90
53844;DHT22;39744;53.314;5.710;2023-02-15T05:44:58;0.10;99.90
53844;DHT22;39744;53.314;5.710;2023-02-15T05:47:24;0.10;99.90
53844;DHT22;39744;53.314;5.710;2023-02-15T05:49:50;0.10;99.90
53844;DHT22;39744;53.314;5.710;2023-02-15T05:52:15;0.10;99.90
53844;DHT22;39744;53.314;5.710;2023-02-15T05:54:41;0.10;99.90
53844;DHT22;39744;53.314;5.710;2023-02-15T05:57:07;0.20;99.90
53844;DHT22;39744;53.314;5.710;2023-02-15T05:59:32;0.00;99.90
53844;DHT22;39744;53.314;5.710;2023-02-15T06:01:58;0.10;99.90
53844;DHT22;39744;53.314;5.710;2023-02-15T06:04:24;0.00;99.90
53844;DHT22;39744;53.314;5.710;2023-02-15T06:06:49;0.10;99.90
53844;DHT22;39744;53.314;5.710;2023-02-15T06:09:15;-0.20;99.90
53844;DHT22;39744;53.314;5.710;2023-02-15T06:11:44;-0.10;99.90
53844;DHT22;39744;53.314;5.710;2023-02-15T06:14:10;-0.10;99.90
53844;DHT22;39744;53.314;5.710;2023-02-15T06:16:35;-0.20;99.90
53844;DHT22;39744;53.314;5.710;2023-02-15T06:19:01;-0.30;99.90
53844;DHT22;39744;53.314;5.710;2023-02-15T06:21:28;-0.10;99.90
53844;DHT22;39744;53.314;5.710;2023-02-15T06:23:54;0.00;99.90
53844;DHT22;39744;53.314;5.710;2023-02-15T06:26:19;0.10;99.90
53844;DHT22;39744;53.314;5.710;2023-02-15T06:28:45;0.00;99.90
53844;DHT22;39744;53.314;5.710;2023-02-15T06:31:10;0.10;99.90
53844;DHT22;39744;53.314;5.710;2023-02-15T06:33:36;0.00;99.90
53844;DHT22;39744;53.314;5.710;2023-02-15T06:36:02;0.20;99.90
53844;DHT22;39744;53.314;5.710;2023-02-15T06:38:29;0.00;99.90
53844;DHT22;39744;53.314;5.710;2023-02-15T06:40:54;0.00;99.90
53844;DHT22;39744;53.314;5.710;2023-02-15T06:43:20;0.10;99.90
53844;DHT22;39744;53.314;5.710;2023-02-15T06:45:46;0.00;99.90
53844;DHT22;39744;53.314;5.710;2023-02-15T06:48:11;0.20;99.90
53844;DHT22;39744;53.314;5.710;2023-02-15T06:50:37;0.10;99.90
53844;DHT22;39744;53.314;5.710;2023-02-15T06:53:03;0.10;99.90
53844;DHT22;39744;53.314;5.710;2023-02-15T06:55:28;0.10;99.90
53844;DHT22;39744;53.314;5.710;2023-02-15T06:57:54;0.00;99.90
53844;DHT22;39744;53.314;5.710;2023-02-15T07:00:20;0.30;99.90
53844;DHT22;39744;53.314;5.710;2023-02-15T07:02:47;0.40;99.90
53844;DHT22;39744;53.314;5.710;2023-02-15T07:05:13;0.50;99.90
53844;DHT22;39744;53.314;5.710;2023-02-15T07:07:38;0.30;99.90
53844;DHT22;39744;53.314;5.710;2023-02-15T07:10:04;0.40;99.90
53844;DHT22;39744;53.314;5.710;2023-02-15T07:12:30;0.60;99.90
53844;DHT22;39744;53.314;5.710;2023-02-15T07:15:12;0.50;99.90
53844;DHT22;39744;53.314;5.710;2023-02-15T07:17:38;0.50;99.90
53844;DHT22;39744;53.314;5.710;2023-02-15T07:20:10;0.50;99.90
53844;DHT22;39744;53.314;5.710;2023-02-15T07:22:36;0.60;99.90
53844;DHT22;39744;53.314;5.710;2023-02-15T07:25:04;0.50;99.90
53844;DHT22;39744;53.314;5.710;2023-02-15T07:27:30;0.70;99.90
53844;DHT22;39744;53.314;5.710;2023-02-15T07:29:56;0.70;99.90
53844;DHT22;39744;53.314;5.710;2023-02-15T07:32:22;0.70;99.90
53844;DHT22;39744;53.314;5.710;2023-02-15T07:34:47;0.80;99.90
53844;DHT22;39744;53.314;5.710;2023-02-15T07:37:13;0.90;99.90
53844;DHT22;39744;53.314;5.710;2023-02-15T07:39:39;0.90;99.90
53844;DHT22;39744;53.314;5.710;2023-02-15T07:42:04;0.90;99.90
53844;DHT22;39744;53.314;5.710;2023-02-15T07:44:30;1.00;99.90
53844;DHT22;39744;53.314;5.710;2023-02-15T07:46:56;1.00;99.90
53844;DHT22;39744;53.314;5.710;2023-02-15T07:49:21;1.20;99.90
53844;DHT22;39744;53.314;5.710;2023-02-15T07:51:47;1.10;99.90
53844;DHT22;39744;53.314;5.710;2023-02-15T07:54:13;1.30;99.90
53844;DHT22;39744;53.314;5.710;2023-02-15T07:56:38;1.20;99.90
53844;DHT22;39744;53.314;5.710;2023-02-15T07:59:04;1.40;99.90
53844;DHT22;39744;53.314;5.710;2023-02-15T08:01:38;1.40;99.90
53844;DHT22;39744;53.314;5.710;2023-02-15T08:04:05;1.50;99.90
53844;DHT22;39744;53.314;5.710;2023-02-15T08:06:33;1.50;99.90
53844;DHT22;39744;53.314;5.710;2023-02-15T08:08:59;1.50;99.90
53844;DHT22;39744;53.314;5.710;2023-02-15T08:11:31;1.70;99.90
53844;DHT22;39744;53.314;5.710;2023-02-15T08:21:45;2.30;99.90
53844;DHT22;39744;53.314;5.710;2023-02-15T08:24:12;2.30;99.90
53844;DHT22;39744;53.314;5.710;2023-02-15T08:26:39;2.50;99.90
53844;DHT22;39744;53.314;5.710;2023-02-15T08:29:05;2.50;99.90
53844;DHT22;39744;53.314;5.710;2023-02-15T08:31:32;2.70;99.90
53844;DHT22;39744;53.314;5.710;2023-02-15T08:33:58;2.70;99.90
53844;DHT22;39744;53.314;5.710;2023-02-15T08:36:27;2.90;99.90
53844;DHT22;39744;53.314;5.710;2023-02-15T08:38:54;2.90;99.90
53844;DHT22;39744;53.314;5.710;2023-02-15T08:41:22;2.90;99.90
53844;DHT22;39744;53.314;5.710;2023-02-15T08:43:53;3.10;99.90
53844;DHT22;39744;53.314;5.710;2023-02-15T08:46:19;3.00;99.90
53844;DHT22;39744;53.314;5.710;2023-02-15T08:48:45;3.20;99.90
53844;DHT22;39744;53.314;5.710;2023-02-15T08:51:16;3.30;99.90
53844;DHT22;39744;53.314;5.710;2023-02-15T08:53:44;3.60;99.90
53844;DHT22;39744;53.314;5.710;2023-02-15T08:56:10;3.40;99.90
53844;DHT22;39744;53.314;5.710;2023-02-15T08:58:36;3.50;99.90
53844;DHT22;39744;53.314;5.710;2023-02-15T09:01:12;3.50;99.90
53844;DHT22;39744;53.314;5.710;2023-02-15T09:03:38;3.80;99.90
53844;DHT22;39744;53.314;5.710;2023-02-15T09:06:04;3.80;99.90
53844;DHT22;39744;53.314;5.710;2023-02-15T09:08:30;4.00;99.90
53844;DHT22;39744;53.314;5.710;2023-02-15T09:11:08;4.20;99.90
53844;DHT22;39744;53.314;5.710;2023-02-15T09:13:35;4.40;99.90
53844;DHT22;39744;53.314;5.710;2023-02-15T09:16:02;4.30;99.90
53844;DHT22;39744;53.314;5.710;2023-02-15T09:18:30;4.50;99.90
53844;DHT22;39744;53.314;5.710;2023-02-15T09:20:56;4.40;99.90
53844;DHT22;39744;53.314;5.710;2023-02-15T09:23:22;4.50;99.90
53844;DHT22;39744;53.314;5.710;2023-02-15T09:25:47;4.70;99.90
53844;DHT22;39744;53.314;5.710;2023-02-15T09:28:13;4.70;99.90
53844;DHT22;39744;53.314;5.710;2023-02-15T09:30:39;4.80;99.90
53844;DHT22;39744;53.314;5.710;2023-02-15T09:33:04;5.00;99.90
53844;DHT22;39744;53.314;5.710;2023-02-15T09:35:30;5.10;99.90
53844;DHT22;39744;53.314;5.710;2023-02-15T09:37:56;5.20;99.90
53844;DHT22;39744;53.314;5.710;2023-02-15T09:40:22;5.30;99.90
53844;DHT22;39744;53.314;5.710;2023-02-15T09:42:58;5.40;99.90
53844;DHT22;39744;53.314;5.710;2023-02-15T09:48:39;5.70;99.90
53844;DHT22;39744;53.314;5.710;2023-02-15T09:51:31;5.50;99.90
53844;DHT22;39744;53.314;5.710;2023-02-15T09:54:37;5.70;99.90
53844;DHT22;39744;53.314;5.710;2023-02-15T10:00:29;6.00;99.90
53844;DHT22;39744;53.314;5.710;2023-02-15T10:06:00;6.10;99.90
53844;DHT22;39744;53.314;5.710;2023-02-15T10:08:50;6.40;99.90
53844;DHT22;39744;53.314;5.710;2023-02-15T10:20:13;6.90;99.90
53844;DHT22;39744;53.314;5.710;2023-02-15T10:28:05;7.40;99.90
53844;DHT22;39744;53.314;5.710;2023-02-15T10:30:53;7.60;99.90
53844;DHT22;39744;53.314;5.710;2023-02-15T10:33:40;7.60;99.90
53844;DHT22;39744;53.314;5.710;2023-02-15T10:36:17;7.70;99.90
53844;DHT22;39744;53.314;5.710;2023-02-15T10:41:42;7.70;99.90
53844;DHT22;39744;53.314;5.710;2023-02-15T10:44:35;7.80;99.90
53844;DHT22;39744;53.314;5.710;2023-02-15T10:47:19;8.00;99.90
53844;DHT22;39744;53.314;5.710;2023-02-15T10:50:03;8.00;99.90
53844;DHT22;39744;53.314;5.710;2023-02-15T11:04:10;8.10;99.90
53844;DHT22;39744;53.314;5.710;2023-02-15T11:06:43;8.10;99.90
53844;DHT22;39744;53.314;5.710;2023-02-15T11:09:14;8.10;99.90
53844;DHT22;39744;53.314;5.710;2023-02-15T11:11:46;8.10;99.90
53844;DHT22;39744;53.314;5.710;2023-02-15T11:14:37;8.10;99.90
53844;DHT22;39744;53.314;5.710;2023-02-15T11:17:09;8.20;99.90
53844;DHT22;39744;53.314;5.710;2023-02-15T11:22:32;8.30;99.90
53844;DHT22;39744;53.314;5.710;2023-02-15T11:24:59;8.40;99.90
53844;DHT22;39744;53.314;5.710;2023-02-15T11:27:29;8.50;99.90
53844;DHT22;39744;53.314;5.710;2023-02-15T11:32:33;8.70;99.90
53844;DHT22;39744;53.314;5.710;2023-02-15T11:41:27;9.10;99.90
53844;DHT22;39744;53.314;5.710;2023-02-15T11:48:36;9.50;99.90
53844;DHT22;39744;53.314;5.710;2023-02-15T17:21:19;6.00;99.90
53844;DHT22;39744;53.314;5.710;2023-02-15T17:23:48;5.80;99.90
53844;DHT22;39744;53.314;5.710;2023-02-15T17:26:22;5.80;99.90
53844;DHT22;39744;53.314;5.710;2023-02-15T17:28:51;5.80;99.90
53844;DHT22;39744;53.314;5.710;2023-02-15T17:31:19;5.70;99.90
53844;DHT22;39744;53.314;5.710;2023-02-15T17:33:45;5.70;99.90
53844;DHT22;39744;53.314;5.710;2023-02-15T17:36:19;5.70;99.90
53844;DHT22;39744;53.314;5.710;2023-02-15T17:41:34;5.70;99.90
53844;DHT22;39744;53.314;5.710;2023-02-15T17:44:00;5.90;99.90
53844;DHT22;39744;53.314;5.710;2023-02-15T17:46:33;5.80;99.90
53844;DHT22;39744;53.314;5.710;2023-02-15T17:49:00;5.70;99.90
53844;DHT22;39744;53.314;5.710;2023-02-15T17:51:26;5.70;99.90
53844;DHT22;39744;53.314;5.710;2023-02-15T17:53:52;5.70;99.90
53844;DHT22;39744;53.314;5.710;2023-02-15T17:56:37;5.60;99.90
53844;DHT22;39744;53.314;5.710;2023-02-15T17:59:04;5.60;99.90
53844;DHT22;39744;53.314;5.710;2023-02-15T18:01:36;5.50;99.90
53844;DHT22;39744;53.314;5.710;2023-02-15T18:04:22;5.50;99.90
53844;DHT22;39744;53.314;5.710;2023-02-15T18:07:08;5.50;99.90
53844;DHT22;39744;53.314;5.710;2023-02-15T18:09:53;5.50;99.90
53844;DHT22;39744;53.314;5.710;2023-02-15T18:12:38;5.40;99.90
53844;DHT22;39744;53.314;5.710;2023-02-15T18:15:05;5.50;99.90
53844;DHT22;39744;53.314;5.710;2023-02-15T18:17:37;5.50;99.90
53844;DHT22;39744;53.314;5.710;2023-02-15T18:20:17;5.40;99.90
53844;DHT22;39744;53.314;5.710;2023-02-15T18:22:45;5.40;99.90
53844;DHT22;39744;53.314;5.710;2023-02-15T18:25:15;5.40;99.90
53844;DHT22;39744;53.314;5.710;2023-02-15T18:27:41;5.40;99.90
53844;DHT22;39744;53.314;5.710;2023-02-15T18:30:11;5.30;99.90
53844;DHT22;39744;53.314;5.710;2023-02-15T18:32:38;5.40;99.90
53844;DHT22;39744;53.314;5.710;2023-02-15T18:35:05;5.30;99.90
53844;DHT22;39744;53.314;5.710;2023-02-15T18:37:32;5.50;99.90
53844;DHT22;39744;53.314;5.710;2023-02-15T18:39:58;5.40;99.90
53844;DHT22;39744;53.314;5.710;2023-02-15T18:42:33;5.40;99.90
53844;DHT22;39744;53.314;5.710;2023-02-15T18:45:11;5.50;99.90
53844;DHT22;39744;53.314;5.710;2023-02-15T18:47:38;5.60;99.90
53844;DHT22;39744;53.314;5.710;2023-02-15T18:50:05;5.40;99.90
53844;DHT22;39744;53.314;5.710;2023-02-15T18:52:33;5.60;99.90
53844;DHT22;39744;53.314;5.710;2023-02-15T18:55:02;5.60;99.90
53844;DHT22;39744;53.314;5.710;2023-02-15T18:57:29;5.50;99.90
53844;DHT22;39744;53.314;5.710;2023-02-15T18:59:55;5.50;99.90
53844;DHT22;39744;53.314;5.710;2023-02-15T19:02:20;5.50;99.90
53844;DHT22;39744;53.314;5.710;2023-02-15T19:04:46;5.50;99.90
53844;DHT22;39744;53.314;5.710;2023-02-15T19:09:45;5.50;99.90
53844;DHT22;39744;53.314;5.710;2023-02-15T19:12:12;5.60;99.90
53844;DHT22;39744;53.314;5.710;2023-02-15T19:14:38;5.50;99.90
53844;DHT22;39744;53.314;5.710;2023-02-15T19:17:08;5.60;99.90
53844;DHT22;39744;53.314;5.710;2023-02-15T19:19:37;5.60;99.90
53844;DHT22;39744;53.314;5.710;2023-02-15T19:22:03;5.60;99.90
53844;DHT22;39744;53.314;5.710;2023-02-15T19:24:36;5.60;99.90
53844;DHT22;39744;53.314;5.710;2023-02-15T19:27:05;5.60;99.90
53844;DHT22;39744;53.314;5.710;2023-02-15T19:29:31;5.50;99.90
53844;DHT22;39744;53.314;5.710;2023-02-15T19:31:56;5.60;99.90
53844;DHT22;39744;53.314;5.710;2023-02-15T19:34:22;5.60;99.90
53844;DHT22;39744;53.314;5.710;2023-02-15T19:36:50;5.60;99.90
53844;DHT22;39744;53.314;5.710;2023-02-15T19:39:29;5.60;99.90
53844;DHT22;39744;53.314;5.710;2023-02-15T19:41:57;5.70;99.90
53844;DHT22;39744;53.314;5.710;2023-02-15T19:44:23;5.60;99.90
53844;DHT22;39744;53.314;5.710;2023-02-15T19:46:49;6.60;99.90
53844;DHT22;39744;53.314;5.710;2023-02-15T19:49:15;5.60;99.90
53844;DHT22;39744;53.314;5.710;2023-02-15T19:51:42;5.60;99.90
53844;DHT22;39744;53.314;5.710;2023-02-15T19:54:19;5.60;99.90
53844;DHT22;39744;53.314;5.710;2023-02-15T19:56:49;5.80;99.90
53844;DHT22;39744;53.314;5.710;2023-02-15T19:59:22;5.60;99.90
53844;DHT22;39744;53.314;5.710;2023-02-15T20:01:48;5.70;99.90
53844;DHT22;39744;53.314;5.710;2023-02-15T20:04:14;5.50;99.90
53844;DHT22;39744;53.314;5.710;2023-02-15T20:06:39;5.70;99.90
53844;DHT22;39744;53.314;5.710;2023-02-15T20:09:09;5.50;99.90
53844;DHT22;39744;53.314;5.710;2023-02-15T20:11:38;5.60;99.90
53844;DHT22;39744;53.314;5.710;2023-02-15T20:14:08;5.60;99.90
53844;DHT22;39744;53.314;5.710;2023-02-15T20:16:35;5.40;99.90
53844;DHT22;39744;53.314;5.710;2023-02-15T20:19:01;5.50;99.90
53844;DHT22;39744;53.314;5.710;2023-02-15T20:21:26;5.40;99.90
53844;DHT22;39744;53.314;5.710;2023-02-15T20:23:52;5.40;99.90
53844;DHT22;39744;53.314;5.710;2023-02-15T20:26:18;5.50;99.90
53844;DHT22;39744;53.314;5.710;2023-02-15T20:28:45;5.40;99.90
53844;DHT22;39744;53.314;5.710;2023-02-15T20:31:15;5.50;99.90
53844;DHT22;39744;53.314;5.710;2023-02-15T20:33:41;5.50;99.90
53844;DHT22;39744;53.314;5.710;2023-02-15T20:36:15;5.50;99.90
53844;DHT22;39744;53.314;5.710;2023-02-15T20:38:41;5.40;99.90
53844;DHT22;39744;53.314;5.710;2023-02-15T20:41:13;5.50;99.90
53844;DHT22;39744;53.314;5.710;2023-02-15T20:43:58;5.40;99.90
53844;DHT22;39744;53.314;5.710;2023-02-15T20:46:23;5.40;99.90
53844;DHT22;39744;53.314;5.710;2023-02-15T20:48:49;5.40;99.90
53844;DHT22;39744;53.314;5.710;2023-02-15T20:51:19;5.30;99.90
53844;DHT22;39744;53.314;5.710;2023-02-15T20:53:46;5.20;99.90
53844;DHT22;39744;53.314;5.710;2023-02-15T20:56:20;5.20;99.90
53844;DHT22;39744;53.314;5.710;2023-02-15T20:58:46;5.10;99.90
53844;DHT22;39744;53.314;5.710;2023-02-15T21:01:12;5.10;99.90
53844;DHT22;39744;53.314;5.710;2023-02-15T21:03:37;5.00;99.90
53844;DHT22;39744;53.314;5.710;2023-02-15T21:06:03;4.90;99.90
53844;DHT22;39744;53.314;5.710;2023-02-15T21:08:29;5.00;99.90
53844;DHT22;39744;53.314;5.710;2023-02-15T21:10:55;4.90;99.90
53844;DHT22;39744;53.314;5.710;2023-02-15T21:13:23;4.80;99.90
53844;DHT22;39744;53.314;5.710;2023-02-15T21:15:50;4.70;99.90
53844;DHT22;39744;53.314;5.710;2023-02-15T21:18:31;4.70;99.90
53844;DHT22;39744;53.314;5.710;2023-02-15T21:21:03;4.80;99.90
53844;DHT22;39744;53.314;5.710;2023-02-15T21:23:34;4.70;99.90
53844;DHT22;39744;53.314;5.710;2023-02-15T21:26:01;4.60;99.90
53844;DHT22;39744;53.314;5.710;2023-02-15T21:28:28;4.60;99.90
53844;DHT22;39744;53.314;5.710;2023-02-15T21:30:55;4.40;99.90
53844;DHT22;39744;53.314;5.710;2023-02-15T21:33:24;4.40;99.90
53844;DHT22;39744;53.314;5.710;2023-02-15T21:35:53;4.50;99.90
53844;DHT22;39744;53.314;5.710;2023-02-15T21:38:23;4.50;99.90
53844;DHT22;39744;53.314;5.710;2023-02-15T21:40:49;4.50;99.90
53844;DHT22;39744;53.314;5.710;2023-02-15T21:43:24;4.40;99.90
53844;DHT22;39744;53.314;5.710;2023-02-15T21:46:17;4.50;99.90
53844;DHT22;39744;53.314;5.710;2023-02-15T21:49:02;4.50;99.90
53844;DHT22;39744;53.314;5.710;2023-02-15T21:51:29;4.40;99.90
53844;DHT22;39744;53.314;5.710;2023-02-15T21:54:14;4.40;99.90
53844;DHT22;39744;53.314;5.710;2023-02-15T21:56:40;4.50;99.90
53844;DHT22;39744;53.314;5.710;2023-02-15T21:59:16;4.30;99.90
53844;DHT22;39744;53.314;5.710;2023-02-15T22:01:49;4.40;99.90
53844;DHT22;39744;53.314;5.710;2023-02-15T22:04:25;4.30;99.90
53844;DHT22;39744;53.314;5.710;2023-02-15T22:06:51;4.30;99.90
53844;DHT22;39744;53.314;5.710;2023-02-15T22:09:24;4.20;99.90
53844;DHT22;39744;53.314;5.710;2023-02-15T22:11:51;4.20;99.90
53844;DHT22;39744;53.314;5.710;2023-02-15T22:14:32;4.30;99.90
53844;DHT22;39744;53.314;5.710;2023-02-15T22:16:59;4.30;99.90
53844;DHT22;39744;53.314;5.710;2023-02-15T22:19:25;4.10;99.90
53844;DHT22;39744;53.314;5.710;2023-02-15T22:21:51;4.10;99.90
53844;DHT22;39744;53.314;5.710;2023-02-15T22:24:17;4.00;99.90
53844;DHT22;39744;53.314;5.710;2023-02-15T22:26:43;4.10;99.90
53844;DHT22;39744;53.314;5.710;2023-02-15T22:29:15;4.10;99.90
53844;DHT22;39744;53.314;5.710;2023-02-15T22:31:42;4.00;99.90
53844;DHT22;39744;53.314;5.710;2023-02-15T22:34:23;3.90;99.90
53844;DHT22;39744;53.314;5.710;2023-02-15T22:36:49;3.90;99.90
53844;DHT22;39744;53.314;5.710;2023-02-15T22:39:15;3.90;99.90
53844;DHT22;39744;53.314;5.710;2023-02-15T22:41:41;3.80;99.90
53844;DHT22;39744;53.314;5.710;2023-02-15T22:44:12;3.80;99.90
53844;DHT22;39744;53.314;5.710;2023-02-15T22:46:40;3.80;99.90
53844;DHT22;39744;53.314;5.710;2023-02-15T22:49:05;3.80;99.90
53844;DHT22;39744;53.314;5.710;2023-02-15T22:51:31;3.80;99.90
53844;DHT22;39744;53.314;5.710;2023-02-15T22:53:57;3.70;99.90
53844;DHT22;39744;53.314;5.710;2023-02-15T22:56:37;3.70;99.90
53844;DHT22;39744;53.314;5.710;2023-02-15T22:59:06;3.70;99.90
53844;DHT22;39744;53.314;5.710;2023-02-15T23:01:35;3.70;99.90